createdAt,value
2022-10-17T09:39:15.313Z,4.45
2022-10-17T09:42:30.170Z,4.53
2022-10-17T09:45:44.195Z,5.47
2022-10-17T09:48:55.712Z,5.07
2022-10-17T09:52:03.321Z,4.97
2022-10-17T09:55:20.593Z,4.30
2022-10-17T09:58:43.856Z,4.20
2022-10-17T10:01:50.955Z,4.47
2022-10-17T10:05:07.295Z,3.77
2022-10-17T10:08:18.989Z,4.50
2022-10-17T10:11:28.229Z,4.10
2022-10-17T10:14:40.616Z,4.83
2022-10-17T10:17:46.477Z,3.70
2022-10-17T10:21:08.337Z,4.27
2022-10-17T10:24:17.296Z,4.47
2022-10-17T10:30:51.241Z,4.07
2022-10-17T10:33:58.081Z,4.03
2022-10-17T10:37:06.701Z,4.40
2022-10-17T10:40:20.891Z,3.77
2022-10-17T10:43:34.324Z,4.30
2022-10-17T10:46:43.777Z,4.40
2022-10-17T10:49:50.162Z,4.07
2022-10-17T10:53:10.846Z,4.40
2022-10-17T10:56:21.566Z,4.40
2022-10-17T10:59:36.012Z,4.03
2022-10-17T11:02:53.967Z,3.97
2022-10-17T11:06:06.646Z,4.03
2022-10-17T11:09:28.837Z,3.87
2022-10-17T11:12:42.593Z,3.77
2022-10-17T11:15:52.804Z,3.70
2022-10-17T11:19:14.201Z,3.80
2022-10-17T11:22:28.202Z,3.60
2022-10-17T11:25:38.726Z,4.03
2022-10-17T11:28:44.575Z,3.53
2022-10-17T11:31:55.826Z,3.80
2022-10-17T11:35:08.744Z,3.15
2022-10-17T11:38:21.667Z,4.03
2022-10-17T11:41:33.148Z,3.17
2022-10-17T11:44:41.603Z,3.63
2022-10-17T11:47:50.715Z,3.80
2022-10-17T11:54:43.780Z,3.53
2022-10-17T11:58:03.396Z,3.60
2022-10-17T12:01:19.196Z,3.35
2022-10-17T12:04:44.765Z,3.40
2022-10-17T12:08:03.685Z,4.10
2022-10-17T12:11:18.166Z,3.47
2022-10-17T12:14:45.818Z,3.03
2022-10-17T12:17:58.571Z,3.42
2022-10-17T12:21:04.307Z,3.50
2022-10-17T12:24:30.823Z,3.17
2022-10-17T12:27:50.193Z,3.20
2022-10-17T12:31:03.725Z,3.25
2022-10-17T12:34:09.710Z,3.70
2022-10-17T12:37:16.232Z,3.83
2022-10-17T12:40:59.483Z,3.35
2022-10-17T12:44:39.018Z,3.15
2022-10-17T12:47:44.760Z,3.35
2022-10-17T12:54:46.969Z,3.60
2022-10-17T12:58:00.500Z,3.67
2022-10-17T13:01:23.893Z,3.40
2022-10-17T13:04:32.968Z,3.70
2022-10-17T13:07:39.875Z,3.60
2022-10-17T13:10:51.785Z,3.50
2022-10-17T13:14:03.915Z,3.70
2022-10-17T13:17:23.548Z,3.72
2022-10-17T13:20:32.133Z,3.22
2022-10-17T13:23:39.912Z,3.47
2022-10-17T13:26:49.109Z,3.53
2022-10-17T13:29:59.731Z,3.65
2022-10-17T13:33:21.723Z,3.22
2022-10-17T13:36:29.044Z,3.33
2022-10-17T13:39:58.172Z,3.30
2022-10-17T13:43:18.299Z,3.20
2022-10-17T13:46:38.023Z,3.25
2022-10-17T13:49:47.136Z,3.03
2022-10-17T13:53:10.001Z,3.20
2022-10-17T13:56:28.517Z,2.95
2022-10-17T13:59:41.201Z,3.38
2022-10-17T14:02:51.336Z,2.50
2022-10-17T14:06:16.723Z,2.50
2022-10-17T14:09:26.462Z,2.85
2022-10-17T14:12:32.120Z,2.72
2022-10-17T14:15:40.677Z,2.88
2022-10-17T14:18:51.131Z,2.50
2022-10-17T14:21:59.808Z,2.35
2022-10-17T14:25:08.163Z,2.85
2022-10-17T14:28:18.840Z,2.80
2022-10-17T14:31:29.139Z,2.72
2022-10-17T14:34:42.378Z,2.72
2022-10-17T14:37:50.897Z,2.90
2022-10-17T14:41:15.435Z,2.67
2022-10-17T14:44:29.383Z,2.60
2022-10-17T14:47:43.682Z,2.58
2022-10-17T14:51:15.454Z,2.60
2022-10-17T14:54:26.196Z,2.38
2022-10-17T14:57:45.005Z,2.60
2022-10-17T15:00:51.479Z,2.75
2022-10-17T15:03:57.102Z,2.65
2022-10-17T15:07:06.423Z,2.85
2022-10-17T15:10:26.396Z,2.33
2022-10-17T15:13:39.225Z,2.42
2022-10-17T15:16:47.821Z,2.78
2022-10-17T15:19:54.337Z,3.08
2022-10-17T15:23:06.362Z,2.42
2022-10-17T15:26:18.448Z,2.60
2022-10-17T15:29:24.286Z,3.00
2022-10-17T15:32:30.740Z,2.78
2022-10-17T15:35:36.346Z,2.95
2022-10-17T15:38:45.598Z,3.50
2022-10-17T15:41:51.540Z,2.60
2022-10-17T15:44:58.635Z,2.53
2022-10-17T15:48:08.575Z,3.08
2022-10-17T15:51:15.051Z,3.03
2022-10-17T15:58:51.616Z,2.90
2022-10-17T16:01:57.522Z,2.93
2022-10-17T16:05:04.153Z,3.00
2022-10-17T16:08:09.830Z,2.83
2022-10-17T16:11:22.613Z,3.07
2022-10-17T16:14:31.909Z,2.80
2022-10-17T16:17:38.493Z,3.10
2022-10-17T16:20:44.811Z,3.67
2022-10-17T16:23:51.264Z,3.30
2022-10-17T16:26:56.909Z,3.17
2022-10-17T16:30:07.301Z,3.57
2022-10-17T16:33:13.438Z,3.07
2022-10-17T16:36:20.369Z,4.20
2022-10-17T16:42:37.313Z,4.00
2022-10-17T16:45:45.746Z,4.13
2022-10-17T16:48:52.537Z,3.67
2022-10-17T16:51:58.448Z,3.67
2022-10-17T16:55:07.919Z,3.63
2022-10-17T16:58:13.516Z,3.50
2022-10-17T17:01:26.035Z,4.03
2022-10-17T17:04:31.915Z,3.63
2022-10-17T17:07:38.357Z,3.83
2022-10-17T17:10:49.484Z,3.73
2022-10-17T17:13:58.063Z,4.50
2022-10-17T17:17:09.623Z,4.33
2022-10-17T17:20:21.943Z,4.30
2022-10-17T17:23:27.844Z,4.50
2022-10-17T17:26:37.068Z,4.07
2022-10-17T17:29:42.654Z,4.47
2022-10-17T17:32:52.129Z,4.27
2022-10-17T17:35:58.504Z,4.20
2022-10-17T17:39:08.889Z,4.50
2022-10-17T17:42:14.439Z,4.47
2022-10-17T17:45:21.023Z,5.70
2022-10-17T17:48:29.373Z,5.50
2022-10-17T17:51:37.789Z,5.17
2022-10-17T17:54:43.374Z,4.97
2022-10-17T17:57:50.087Z,5.83
2022-10-17T18:00:55.967Z,6.23
2022-10-17T18:04:06.303Z,6.40
2022-10-17T18:07:12.109Z,6.40
2022-10-17T18:10:19.392Z,7.20
2022-10-17T18:13:25.141Z,5.63
2022-10-17T18:16:33.276Z,7.17
2022-10-17T18:19:41.758Z,7.73
2022-10-17T18:22:48.212Z,6.63
2022-10-17T18:25:57.165Z,7.70
2022-10-17T18:29:03.676Z,7.43
2022-10-17T18:32:09.339Z,7.40
2022-10-17T18:35:18.939Z,7.27
2022-10-17T18:38:24.509Z,7.20
2022-10-17T18:41:31.652Z,6.73
2022-10-17T18:44:37.252Z,7.37
2022-10-17T18:47:47.479Z,7.83
2022-10-17T18:50:55.944Z,7.43
2022-10-17T18:54:03.343Z,7.57
2022-10-17T18:57:09.667Z,6.43
2022-10-17T19:00:16.938Z,6.90
2022-10-17T19:03:22.813Z,7.27
2022-10-17T19:06:33.848Z,7.00
2022-10-17T19:09:39.495Z,6.47
2022-10-17T19:12:45.936Z,6.20
2022-10-17T19:15:51.654Z,6.60
2022-10-17T19:19:00.117Z,5.90
2022-10-17T19:22:10.358Z,4.97
2022-10-17T19:25:16.921Z,6.40
2022-10-17T19:28:23.041Z,5.43
2022-10-17T19:31:31.712Z,5.73
2022-10-17T19:34:38.255Z,5.50
2022-10-17T19:37:47.448Z,5.90
2022-10-17T19:40:53.111Z,5.53
2022-10-17T19:43:59.706Z,6.70
2022-10-17T19:47:06.796Z,5.90
2022-10-17T19:50:13.550Z,5.77
2022-10-17T19:53:22.406Z,6.30
2022-10-17T19:56:30.341Z,6.10
2022-10-17T19:59:36.036Z,6.07
2022-10-17T20:02:42.493Z,6.00
2022-10-17T20:05:48.893Z,7.07
2022-10-17T20:08:58.087Z,6.60
2022-10-17T20:12:03.663Z,7.00
2022-10-17T20:15:10.780Z,6.53
2022-10-17T20:18:16.806Z,6.63
2022-10-17T20:21:27.359Z,7.03
2022-10-17T20:24:35.726Z,6.33
2022-10-17T20:27:42.170Z,6.70
2022-10-17T20:30:48.516Z,6.73
2022-10-17T20:33:58.686Z,6.40
2022-10-17T20:37:06.815Z,6.73
2022-10-17T20:40:34.195Z,6.60
2022-10-17T20:43:41.101Z,6.80
2022-10-17T20:47:01.321Z,7.03
2022-10-17T20:50:08.808Z,7.07
2022-10-17T20:53:35.991Z,6.70
2022-10-17T20:56:44.410Z,6.80
2022-10-17T20:59:50.984Z,6.83
2022-10-17T21:02:56.671Z,8.57
2022-10-17T21:06:03.540Z,7.13
2022-10-17T21:09:09.911Z,6.40
2022-10-17T21:12:26.261Z,6.97
2022-10-17T21:15:42.462Z,6.77
2022-10-17T21:18:49.491Z,6.87
2022-10-17T21:21:55.091Z,7.73
2022-10-17T21:25:03.580Z,7.13
2022-10-17T21:28:12.004Z,6.93
2022-10-17T21:31:21.068Z,6.83
2022-10-17T21:34:28.763Z,6.40
2022-10-17T21:37:35.177Z,6.23
2022-10-17T21:40:40.705Z,6.57
2022-10-17T21:43:50.429Z,5.57
2022-10-17T21:46:57.486Z,5.60
2022-10-17T21:50:03.873Z,5.83
2022-10-17T21:53:09.868Z,5.70
2022-10-17T21:56:18.454Z,5.07
2022-10-17T21:59:26.955Z,4.87
2022-10-17T22:02:33.604Z,5.57
2022-10-17T22:05:39.341Z,5.20
2022-10-17T22:08:45.870Z,5.03
2022-10-17T22:11:54.801Z,5.17
2022-10-17T22:15:04.097Z,5.33
2022-10-17T22:18:10.028Z,4.70
2022-10-17T22:21:18.961Z,4.97
2022-10-17T22:24:25.228Z,5.07
2022-10-17T22:27:31.972Z,4.60
2022-10-17T22:30:40.432Z,5.53
2022-10-17T22:33:47.137Z,5.13
2022-10-17T22:36:52.739Z,4.80
2022-10-17T22:39:59.195Z,5.40
2022-10-17T22:43:06.859Z,4.50
2022-10-17T22:46:17.455Z,5.17
2022-10-17T22:49:23.074Z,4.90
2022-10-17T22:52:30.015Z,4.60
2022-10-17T22:55:35.861Z,5.43
2022-10-17T22:58:42.981Z,5.03
2022-10-17T23:01:51.372Z,4.87
2022-10-17T23:04:57.832Z,4.83
2022-10-17T23:08:03.453Z,4.37
2022-10-17T23:11:10.621Z,4.10
2022-10-17T23:14:16.279Z,5.07
2022-10-17T23:17:25.564Z,5.27
2022-10-17T23:20:31.666Z,4.83
2022-10-17T23:23:38.113Z,4.10
2022-10-17T23:26:43.663Z,4.47
2022-10-17T23:29:50.046Z,4.40
2022-10-17T23:32:59.081Z,4.00
2022-10-17T23:36:07.943Z,4.43
2022-10-17T23:39:14.136Z,4.30
2022-10-17T23:42:20.594Z,4.40
2022-10-17T23:45:26.516Z,4.23
2022-10-17T23:48:35.819Z,4.40
2022-10-17T23:51:41.376Z,3.80
2022-10-17T23:54:47.979Z,4.30
2022-10-17T23:57:53.536Z,4.03
